TOURFACTS.DK  
Stats and Facts from Tour de France.

Tour de France 2019 starts in 348 days
  Riders   Stages   Teams   Summits   Yearly  


 
Search by year

After 2018 - Stage 14:
 15000 starters.
  5163 different riders.
  639 teams.
  2246 stages.
  456 restdays.
  441957.60 km.
  5678 abandonnees.


Top 3
GC
Christopher Froome86:20:55
Rigoberto Urán86:21:49
Romain Bardet86:23:15
Climb
Warren Barguil169 pt.
Primoz Roglic80 pt.
Thomas De Gendt64 pt.
Sprint
Michael Matthews359 pt.
André Greipel234 pt.
Edvald Boasson Hagen220 pt.
Youth
Simon Yates86:27:09
Louis Meintjes86:29:15
Emanuel Buchmann86:54:16
Facts from Tour de France 1994
  |   Stages.  |   Stage winners.  |   Days in yellow  |   Average speed.  |   Route.  |   Teams.  |   All riders.  |   Rookies.  |  

  |   Withdrawls.  |   GC.  |   Polka  |   Green  |   White  |   Summits. (In tour)  |   Miscellaneous.  |  

Stage 11 on July 13th. 1994
         Owning:    Miguel Indurain    
Pick a stage:  Pro 1 2 3 4 5 6 7 8 9 10 11 12 13 14 15 16 17 18 19 20 21
From: Cahors    To: Lourdes-HautacamDist:263.50 km.
Cat: 4Côte de Saint ClarBELPeter De Clercq
5 points
 
Cat: 4Côte de BroquensBELPeter De Clercq
5 points
 
Cat: HMontée du HautacamFRALuc Leblanc
40 points
 

Average speed for all riders in stage:  36,933 km./hr.
    Place:Name:Team:Time:Km/h:
FRALuc LeblancESPFestina-Andorra06:58:04  +  00:00:00=37,817 
ESPMiguel IndurainESPBanesto06:58:06  +  00:00:02=37,814 
ITAMarco PantaniITACarrera Jeans-Tassoni06:58:22  +  00:00:18=37,790 
4 MARRichard VirenqueESPFestina-Andorra06:59:00  +  00:00:56=37,733 
5 FRAArmand De Las CuevasFRACastorama06:59:02  +  00:00:58=37,730 
6 RUSPavel TonkovITALampre-Panaria06:59:30  +  00:01:26=37,688 
7 URSPiotr UgrumovITAGewiss-Ballan06:59:30  +  00:01:26=37,688 
8 ITAEnrico ZainaITAGewiss-Ballan06:59:40  +  00:01:36=37,673 
9 ITARoberto ContiITALampre-Panaria06:59:50  +  00:01:46=37,658 
10 ESPLaudelino CubinoESPKelme-Avianca06:59:54  +  00:01:50=37,652 
11 SUIAlex ZülleESPO.N.C.E.06:59:56  +  00:01:52=37,649 
12 URSVladimir PoulnikovITACarrera Jeans-Tassoni06:59:56  +  00:01:52=37,649 
13 COLNelson RodriguezITAZG Mobili-Selle Italia06:59:56  +  00:01:52=37,649 
14 ITAOscar PelliccioliITAPolti-Vaporetto07:00:25  +  00:02:21=37,606 
15 DENBjarne RiisITAGewiss-Ballan07:00:25  +  00:02:21=37,606 
16 DENTony RomingerBELMapei-Clas07:00:25  +  00:02:21=37,606 
17 GERUdo BöltsDEUTelecom07:00:25  +  00:02:21=37,606 
18 FRAPascal LinoESPFestina-Andorra07:00:35  +  00:02:31=37,591 
19 FRAJean-François BernardESPBanesto07:00:39  +  00:02:35=37,585 
20 COLOliverio RincónESPO.N.C.E.07:00:55  +  00:02:51=37,561 
21 ESPAbraham OlanoBELMapei-Clas07:00:55  +  00:02:51=37,561 
22 ITAGiorgio FurlanITAGewiss-Ballan07:01:25  +  00:03:21=37,516 
23 ITAAlberto ElliITAGB-MG Maglificio07:01:32  +  00:03:28=37,506 
24 ITAFranco VonaITAGB-MG Maglificio07:01:32  +  00:03:28=37,506 
25 COLAngel OchoaESPKelme-Avianca07:01:48  +  00:03:44=37,482 
26 DDRGerd AudehmDEUTelecom07:01:48  +  00:03:44=37,482 
27 SUILaurent DufauxESPO.N.C.E.07:01:48  +  00:03:44=37,482 
28 FRAThomas DavyFRACastorama07:01:48  +  00:03:44=37,482 
29 COLHernán BuenahoraESPKelme-Avianca07:01:48  +  00:03:44=37,482 
30 BELJim Van De LaerBELLotto-Veta-Caloi07:01:48  +  00:03:44=37,482 
31 COLAlvaro MejiaUSAMotorola07:01:55  +  00:03:51=37,472 
32 FRARonan PensecFRANovemail-Histor-Laser Computer07:01:55  +  00:03:51=37,472 
33 ITAAndrea PeronITAPolti-Vaporetto07:02:07  +  00:04:03=37,454 
34 ESPFederico EchaveBELMapei-Clas07:02:24  +  00:04:20=37,429 
35 URSSerguei OutschakovITAPolti-Vaporetto07:02:24  +  00:04:20=37,429 
36 COLFederico FernandezESPKelme-Avianca07:02:24  +  00:04:20=37,429 
37 ITAGianluca BortolamiBELMapei-Clas07:02:43  +  00:04:39=37,401 
38 SUIBeat ZbergITACarrera Jeans-Tassoni07:02:43  +  00:04:39=37,401 
39 ESPArsenio GonzálezBELMapei-Clas07:02:43  +  00:04:39=37,401 
40 FRARoberto TorresESPFestina-Andorra07:02:43  +  00:04:39=37,401 
41 FRAÉric CaritouxFRAChazal-MBK-Konig07:02:43  +  00:04:39=37,401 
42 ITABruno CenghialtaITAGewiss-Ballan07:02:43  +  00:04:39=37,401 
43 FRAEddy SeigneurFRAGan07:02:43  +  00:04:39=37,401 
44 ESPFernando EscartinBELMapei-Clas07:02:54  +  00:04:50=37,385 
45 URSViatcheslav EkimovBELWordperfect07:02:59  +  00:04:55=37,377 
46 NEDErik BreukinkESPO.N.C.E.07:03:12  +  00:05:08=37,358 
47 ESPRamon GonzalezESPBanesto07:03:12  +  00:05:08=37,358 
48 FRACharly MottetFRANovemail-Histor-Laser Computer07:03:12  +  00:05:08=37,358 
49 SUIGianni BugnoITAPolti-Vaporetto07:03:22  +  00:05:18=37,344 
50 DENJesper SkibbyNLDTVM-Bison07:03:24  +  00:05:20=37,341 
51 DENBo HamburgerNLDTVM-Bison07:03:24  +  00:05:20=37,341 
52 NEDSteven RooksNLDTVM-Bison07:03:24  +  00:05:20=37,341 
53 FRAPascal HerveESPFestina-Andorra07:03:48  +  00:05:44=37,305 
54 NORDag Otto LauritzenNLDTVM-Bison07:04:05  +  00:06:01=37,280 
55 NEDBart VoskampNLDTVM-Bison07:04:05  +  00:06:01=37,280 
56 MEXMiguel ArroyoFRAChazal-MBK-Konig07:04:25  +  00:06:21=37,251 
57 NEDGert-Jan TheunisseNLDTVM-Bison07:04:27  +  00:06:23=37,248 
58 URSDjamolidine AbduzhaparovITAPolti-Vaporetto07:04:27  +  00:06:23=37,248 
59 DDRJens HeppnerDEUTelecom07:04:27  +  00:06:23=37,248 
60 GERRolf AldagDEUTelecom07:04:27  +  00:06:23=37,248 
61 ITAFlavio VanzellaITAGB-MG Maglificio07:04:27  +  00:06:23=37,248 
62 ITAPaolo LanfranchiITAMercatone Uno-Medeghini07:04:43  +  00:06:39=37,225 
63 URSVladislav BobrikITAGewiss-Ballan07:04:43  +  00:06:39=37,225 
64 USALance ArmstrongUSAMotorola07:05:07  +  00:07:03=37,190 
65 FRAThierry MarieFRACastorama07:05:07  +  00:07:03=37,190 
66 NORAtle KvålsvollBELWordperfect07:05:07  +  00:07:03=37,190 
67 FRAChristophe ManinFRAChazal-MBK-Konig07:05:38  +  00:07:34=37,145 
68 ESPRaúl AlcaláUSAMotorola07:05:48  +  00:07:44=37,130 
69 ITAMarco ZenITALampre-Panaria07:05:48  +  00:07:44=37,130 
70 ITAMauro-Antonio SantaromitaITAZG Mobili-Selle Italia07:05:48  +  00:07:44=37,130 
71 ESPVicente AparicioESPBanesto07:05:51  +  00:07:47=37,126 
72 ESPIgnacio GarciaESPKelme-Avianca07:05:58  +  00:07:54=37,116 
73 BELGuy NulensFRANovemail-Histor-Laser Computer07:06:01  +  00:07:57=37,111 
74 BELLuc RoosenBELLotto-Veta-Caloi07:06:01  +  00:07:57=37,111 
75 FRALaurent MadouasFRACastorama07:06:05  +  00:08:01=37,105 
76 FRAJean-Claude BagotESPFestina-Andorra07:06:17  +  00:08:13=37,088 
77 FRAThierry GouvenouFRAGan07:06:36  +  00:08:32=37,060 
78 DENPeter Meinert NielsenNLDTVM-Bison07:06:53  +  00:08:49=37,036 
79 URSDimitri ZhdanovITAPolti-Vaporetto07:06:53  +  00:08:49=37,036 
80 NEDPatrick JonkerFRANovemail-Histor-Laser Computer07:07:09  +  00:09:05=37,013 
81 FRAPascal ChanteurFRAChazal-MBK-Konig07:07:09  +  00:09:05=37,013 
82 BELJohan CapiotNLDTVM-Bison07:07:29  +  00:09:25=36,984 
83 URSAndrei TchmilBELLotto-Veta-Caloi07:07:29  +  00:09:25=36,984 
84 FRAJean-Pierre BourgeotFRAChazal-MBK-Konig07:07:50  +  00:09:46=36,954 
85 NEDGerrit De VriesFRANovemail-Histor-Laser Computer07:07:54  +  00:09:50=36,948 
86 URSArturas KasputisFRAChazal-MBK-Konig07:08:26  +  00:10:22=36,902 
87 ESPJosé UriarteESPBanesto07:08:58  +  00:10:54=36,856 
88 COLJulio-César CadenaESPKelme-Avianca07:08:58  +  00:10:54=36,856 
89 FRAGérard RuéESPBanesto07:08:58  +  00:10:54=36,856 
90 ITAGuido BontempiITAGewiss-Ballan07:10:11  +  00:12:07=36,752 
91 BELMarc SergeantFRANovemail-Histor-Laser Computer07:10:11  +  00:12:07=36,752 
92 NEDRob MuldersBELWordperfect07:10:11  +  00:12:07=36,752 
93 ENGPhil AndersonUSAMotorola07:10:11  +  00:12:07=36,752 
94 BELEric Van LanckerBELWordperfect07:10:11  +  00:12:07=36,752 
95 AUSStephen HodgeESPFestina-Andorra07:10:11  +  00:12:07=36,752 
96 DENRolf SørensenITAGB-MG Maglificio07:10:11  +  00:12:07=36,752 
97 DDRUwe RaabDEUTelecom07:10:11  +  00:12:07=36,752 
98 BELRudy VerdonckBELLotto-Veta-Caloi07:10:11  +  00:12:07=36,752 
99 ITADavide PeronaITAZG Mobili-Selle Italia07:10:11  +  00:12:07=36,752 
100 ITAMassimo GhirottoITAZG Mobili-Selle Italia07:10:11  +  00:12:07=36,752 
101 POLCesary ZamanaESPKelme-Avianca07:10:11  +  00:12:07=36,752 
102 ESPFrancisco CabelloESPKelme-Avianca07:10:11  +  00:12:07=36,752 
103 ITAGiancarlo PeriniITAZG Mobili-Selle Italia07:10:11  +  00:12:07=36,752 
104 ITASilvio MartinelloITAMercatone Uno-Medeghini07:10:11  +  00:12:07=36,752 
105 FRAPhilippe LouviotFRANovemail-Histor-Laser Computer07:10:11  +  00:12:07=36,752 
106 FRAJean-Philippe DojwaFRAGan07:10:11  +  00:12:07=36,752 
107 BELHerman FrisonBELLotto-Veta-Caloi07:10:11  +  00:12:07=36,752 
108 DDRMario KummerDEUTelecom07:10:11  +  00:12:07=36,752 
109 BELMario De ClercqBELLotto-Veta-Caloi07:10:11  +  00:12:07=36,752 
110 BELMarc WautersBELWordperfect07:10:11  +  00:12:07=36,752 
111 BELPeter FarazijnBELLotto-Veta-Caloi07:10:11  +  00:12:07=36,752 
112 FRABruno ThiboutFRACastorama07:10:11  +  00:12:07=36,752 
113 FRAFrançois SimonFRACastorama07:10:11  +  00:12:07=36,752 
114 BELHendrik RedantITAZG Mobili-Selle Italia07:10:11  +  00:12:07=36,752 
115 ITADario BottaroITAGewiss-Ballan07:10:11  +  00:12:07=36,752 
116 BELPeter De ClercqBELLotto-Veta-Caloi07:10:11  +  00:12:07=36,752 
117 ITAGiuseppe PetitoITAMercatone Uno-Medeghini07:10:11  +  00:12:07=36,752 
118 ITAFranco ChioccioliITAMercatone Uno-Medeghini07:10:20  +  00:12:16=36,739 
119 ITAEros PoliITAMercatone Uno-Medeghini07:10:38  +  00:12:34=36,713 
120 ESPÁngel EdoESPKelme-Avianca07:10:45  +  00:12:41=36,703 
121 NEDLeon van BonBELWordperfect07:11:11  +  00:13:07=36,667 
122 NEDRob HarmelingNLDTVM-Bison07:11:25  +  00:13:21=36,647 
123 ITARosario FinaITAMercatone Uno-Medeghini07:12:09  +  00:14:05=36,585 
124 BELWilfried PeetersITAGB-MG Maglificio07:12:09  +  00:14:05=36,585 
125 DDRErik ZabelDEUTelecom07:12:09  +  00:14:05=36,585 
126 NEDJean-Paul van PoppelESPFestina-Andorra07:12:09  +  00:14:05=36,585 
127 DDROlaf LudwigDEUTelecom07:12:09  +  00:14:05=36,585 
128 BELNico EmondsBELMapei-Clas07:12:09  +  00:14:05=36,585 
129 BELCarlo BomansITAGB-MG Maglificio07:12:09  +  00:14:05=36,585 
130 ITAAlessio GallettiITALampre-Panaria07:12:09  +  00:14:05=36,585 
131 SVKJán SvoradaITALampre-Panaria07:12:09  +  00:14:05=36,585 
132 ITAMario ScireaITAPolti-Vaporetto07:12:09  +  00:14:05=36,585 
133 ITAGiovanni FidanzaITAPolti-Vaporetto07:12:09  +  00:14:05=36,585 
134 NEDEdwig Van HooydonckBELWordperfect07:12:09  +  00:14:05=36,585 
135 AUSNeil StephensESPO.N.C.E.07:12:34  +  00:14:30=36,549 
136 ITAMarco SerpelliniITALampre-Panaria07:12:34  +  00:14:30=36,549 
137 BELMichel DerniesUSAMotorola07:13:15  +  00:15:11=36,492 
138 NEDErik DekkerBELWordperfect07:13:18  +  00:15:14=36,487 
139 NZLStephen SwartUSAMotorola07:13:18  +  00:15:14=36,487 
140 FRAJean-Claude ColottiFRAGan07:13:47  +  00:15:43=36,447 
141 ITANicola MinaliITAGewiss-Ballan07:13:47  +  00:15:43=36,447 
142 ITADavide CassaniITAGB-MG Maglificio07:13:47  +  00:15:43=36,447 
143 FRAFrancis MoreauFRAGan07:13:47  +  00:15:43=36,447 
144 BELMichel VermoteESPFestina-Andorra07:14:02  +  00:15:58=36,426 
145 NEDMarco VermeyFRAChazal-MBK-Konig07:14:02  +  00:15:58=36,426 
146 USAFrankie AndreuUSAMotorola07:14:02  +  00:15:58=36,426 
147 ENGSean YatesUSAMotorola07:14:02  +  00:15:58=36,426 
148 GERChristian HennDEUTelecom07:14:02  +  00:15:58=36,426 
149 BELJohan MuseeuwITAGB-MG Maglificio07:14:02  +  00:15:58=36,426 
150 FRAChristophe CapelleFRAGan07:14:02  +  00:15:58=36,426 
151 ESPJon UnzagaBELMapei-Clas07:14:02  +  00:15:58=36,426 
152 SUIJörg MüllerBELMapei-Clas07:14:02  +  00:15:58=36,426 
153 ITAMarco LiettiITALampre-Panaria07:14:02  +  00:15:58=36,426 
154 ITAGianni FaresinITALampre-Panaria07:14:02  +  00:15:58=36,426 
155 NEDErwin NijboerESPBanesto07:15:15  +  00:17:11=36,324 
156 ESPMarino MonjeESPBanesto07:15:15  +  00:17:11=36,324 
157 ESPMelchor MauriESPBanesto07:15:15  +  00:17:11=36,324 
158 ITAStefano ColagèITAZG Mobili-Selle Italia07:15:15  +  00:17:11=36,324 
159 ESPHerminio ZabalaESPO.N.C.E.07:15:37  +  00:17:33=36,293 
160 ESPJose-Roberto AguerroESPO.N.C.E.07:15:37  +  00:17:33=36,293 
161 ESPAlberto LeanizbarrutiaESPO.N.C.E.07:15:37  +  00:17:33=36,293 
162 SUIRolf JärmannITAGB-MG Maglificio07:16:20  +  00:18:16=36,234 
163 URSJaan KirsipuuFRAChazal-MBK-Konig07:16:26  +  00:18:22=36,225 
164 NEDJohn TalenITAMercatone Uno-Medeghini07:16:59  +  00:18:55=36,180 
165 FRALaurent DesbiensFRACastorama07:19:27  +  00:21:23=35,977 
166 FRAJacky DurandFRACastorama07:19:29  +  00:21:25=35,974 
167 FRAEmmanuel MagnienFRACastorama07:19:30  +  00:21:26=35,973 
168 ITAClaudio ChiappucciITACarrera Jeans-Tassoni07:22:01  +  00:23:57=35,768 
169 ITAMario ChiesaITACarrera Jeans-Tassoni07:22:01  +  00:23:57=35,768 
170 ITAMario MantovanITACarrera Jeans-Tassoni07:22:01  +  00:23:57=35,768 
171 ITAMarco ArtunghiITACarrera Jeans-Tassoni07:22:01  +  00:23:57=35,768 
172 ITARemo RossiITACarrera Jeans-Tassoni07:22:01  +  00:23:57=35,768 
173 ITAAlessandro BertoliniITACarrera Jeans-Tassoni07:22:01  +  00:23:57=35,768 

Withdrawls: 2
 
Rider
Team
Reason
82  ENGChris BoardmanFRAGanDid not finish
207  ITARoberto PetitoITAMercatone Uno-MedeghiniDid not finish

Todays birthdays.

1877  Antoine Perrichon
1878  Auguste Berthault
1911  Théo Herckenrath
1924  Carlo Lafranchi
1931  Armand Di Caro
1937  Jean-Claude Lebaube
1951  Giovanni Battaglin
1961  Pascal Jules
1962  Jean-Claude Leclercq
1976  Janek Tombak
1978  Francisco Pérez
1983  Dries Devenyns




Visits: